Time;durP1;ratioP1;P1;durP2;ratioP2;P2;SDS_P1;SDS_P2;PMS_P1;PMS_P2;Temp;Humidity;BMP_temperature;BMP_pressure;BME280_temperature;BME280_humidity;BME280_pressure;Samples;Min_cycle;Max_cycle;Signal;HPM_P1;HPM_P2
2022/11/28 00:02:19;;;;;;;1.60;1.20;;;7.20;98.20;;;;;;5006430;28;20486;-75
2022/11/28 00:04:45;;;;;;;1.60;1.30;;;7.20;98.20;;;;;;5011177;28;20467;-76
2022/11/28 00:07:12;;;;;;;2.60;2.40;;;7.20;98.20;;;;;;5003122;28;20484;-76
2022/11/28 00:09:39;;;;;;;1.63;1.37;;;7.20;98.20;;;;;;4997833;28;20483;-75
2022/11/28 00:12:07;;;;;;;1.60;1.20;;;7.20;98.20;;;;;;4994272;28;20479;-75
2022/11/28 00:14:34;;;;;;;1.60;1.20;;;7.30;98.20;;;;;;4997214;28;20457;-74
2022/11/28 00:17:01;;;;;;;1.60;1.40;;;7.30;98.20;;;;;;5000468;28;20491;-75
2022/11/28 00:19:27;;;;;;;1.60;1.20;;;7.30;98.20;;;;;;5018306;28;20507;-74
2022/11/28 00:21:54;;;;;;;1.63;1.30;;;7.30;98.20;;;;;;5001908;28;20483;-76
2022/11/28 00:24:21;;;;;;;1.60;1.30;;;7.30;98.20;;;;;;5000321;28;20488;-75
2022/11/28 00:26:48;;;;;;;1.80;1.60;;;7.30;98.20;;;;;;4997803;28;20491;-74
2022/11/28 00:29:16;;;;;;;1.60;1.30;;;7.30;98.20;;;;;;5005946;28;20993;-74
2022/11/28 00:31:43;;;;;;;1.60;1.30;;;7.30;98.20;;;;;;4995254;28;20487;-73
2022/11/28 00:34:12;;;;;;;1.60;1.30;;;7.30;98.20;;;;;;5010091;28;20607;-76
2022/11/28 00:36:39;;;;;;;1.60;1.40;;;7.20;98.20;;;;;;4987658;28;20484;-74
2022/11/28 00:39:06;;;;;;;1.93;1.73;;;7.20;98.20;;;;;;4999857;28;20484;-72
2022/11/28 00:41:34;;;;;;;1.63;1.30;;;7.20;98.20;;;;;;4987998;28;20484;-74
2022/11/28 00:44:00;;;;;;;1.60;1.23;;;7.20;98.20;;;;;;4997861;28;20480;-77
2022/11/28 00:46:30;;;;;;;2.67;2.47;;;7.20;98.20;;;;;;4991981;28;20491;-74
2022/11/28 00:48:57;;;;;;;1.60;1.30;;;7.20;98.20;;;;;;5023151;28;20487;-76
2022/11/28 00:51:26;;;;;;;1.60;1.30;;;7.20;98.20;;;;;;5007261;28;20765;-76
2022/11/28 00:53:54;;;;;;;1.60;1.30;;;7.20;98.20;;;;;;5014620;28;20457;-74
2022/11/28 00:56:23;;;;;;;1.60;1.30;;;7.10;98.20;;;;;;4985862;28;20479;-77
2022/11/28 00:58:50;;;;;;;1.60;1.20;;;7.10;98.20;;;;;;5003845;28;20481;-74
2022/11/28 01:01:18;;;;;;;1.70;1.50;;;7.10;98.20;;;;;;4990039;28;20479;-76
2022/11/28 01:03:47;;;;;;;1.60;1.23;;;7.10;98.20;;;;;;5007832;28;20489;-76
2022/11/28 01:06:21;;;;;;;1.60;1.33;;;7.10;98.20;;;;;;4988843;28;20873;-77
2022/11/28 01:08:48;;;;;;;1.63;1.30;;;7.10;98.20;;;;;;5024412;28;20487;-77
2022/11/28 01:11:14;;;;;;;1.60;1.30;;;7.10;98.20;;;;;;5002175;28;20480;-75
2022/11/28 01:13:41;;;;;;;1.60;1.20;;;7.10;98.20;;;;;;5003871;28;20461;-77
2022/11/28 01:16:09;;;;;;;1.60;1.23;;;7.10;98.20;;;;;;4986776;28;20473;-77
2022/11/28 01:18:36;;;;;;;1.60;1.30;;;7.10;98.20;;;;;;5017377;28;20485;-77
2022/11/28 01:21:04;;;;;;;1.60;1.30;;;7.10;98.20;;;;;;4986344;28;20460;-76
2022/11/28 01:23:31;;;;;;;1.60;1.30;;;7.10;98.20;;;;;;5025767;28;20822;-76
2022/11/28 01:25:58;;;;;;;1.60;1.30;;;7.10;98.20;;;;;;5002047;28;20456;-77
2022/11/28 01:28:24;;;;;;;1.63;1.30;;;7.10;98.20;;;;;;5005653;28;20485;-76
2022/11/28 01:30:51;;;;;;;1.60;1.20;;;7.10;98.20;;;;;;4985541;28;20461;-77
2022/11/28 01:33:18;;;;;;;1.60;1.30;;;7.10;98.20;;;;;;5009532;28;20984;-74
2022/11/28 01:35:54;;;;;;;1.70;1.43;;;7.10;98.20;;;;;;4991661;28;20473;-74
2022/11/28 01:38:23;;;;;;;1.60;1.30;;;7.10;98.20;;;;;;4962819;28;20504;-76
2022/11/28 01:40:51;;;;;;;1.63;1.27;;;7.10;98.20;;;;;;4964936;28;20468;-76
2022/11/28 01:43:18;;;;;;;1.67;1.43;;;7.10;98.20;;;;;;5006698;28;20485;-76
2022/11/28 01:45:45;;;;;;;1.60;1.30;;;7.10;98.20;;;;;;4991908;28;20901;-76
2022/11/28 01:48:15;;;;;;;1.60;1.30;;;7.10;98.20;;;;;;5016585;28;20491;-76
2022/11/28 01:50:44;;;;;;;1.60;1.20;;;7.10;98.20;;;;;;4996517;28;20825;-76
2022/11/28 01:53:12;;;;;;;1.60;1.30;;;7.10;98.20;;;;;;4997090;28;20484;-76
2022/11/28 01:55:52;;;;;;;1.67;1.30;;;7.10;98.20;;;;;;4992735;28;20461;-76
2022/11/28 01:58:19;;;;;;;1.60;1.30;;;7.10;98.20;;;;;;4981413;28;20927;-76
2022/11/28 02:00:47;;;;;;;1.60;1.20;;;7.10;98.20;;;;;;4992653;28;20465;-76
2022/11/28 02:03:21;;;;;;;1.70;1.40;;;7.10;98.20;;;;;;5000072;28;21033;-76
2022/11/28 02:05:50;;;;;;;1.63;1.30;;;7.10;98.20;;;;;;4987186;28;20866;-76
2022/11/28 02:08:17;;;;;;;1.60;1.30;;;7.10;98.20;;;;;;5009800;28;20481;-77
2022/11/28 02:11:11;;;;;;;1.60;1.20;;;7.10;98.20;;;;;;4992480;28;20883;-76
2022/11/28 02:13:47;;;;;;;1.67;1.30;;;7.10;98.20;;;;;;4978713;28;20475;-76
2022/11/28 02:16:28;;;;;;;1.60;1.30;;;7.10;98.20;;;;;;4985607;28;20560;-76
2022/11/28 02:19:05;;;;;;;1.60;1.20;;;7.10;98.20;;;;;;5021903;28;20535;-76
2022/11/28 02:21:46;;;;;;;1.60;1.30;;;7.10;98.20;;;;;;5000876;28;20471;-76
2022/11/28 02:24:47;;;;;;;1.60;1.27;;;7.10;98.20;;;;;;4997722;28;20875;-76
2022/11/28 02:27:43;;;;;;;1.70;1.30;;;7.10;98.20;;;;;;4994965;28;20804;-75
2022/11/28 02:30:20;;;;;;;1.60;1.30;;;7.10;98.20;;;;;;4992275;28;20457;-76
2022/11/28 02:33:17;;;;;;;1.70;1.40;;;7.10;98.20;;;;;;4995790;28;20490;-76
2022/11/28 02:35:55;;;;;;;1.60;1.20;;;7.10;98.20;;;;;;4986950;28;20859;-76
2022/11/28 02:38:30;;;;;;;1.63;1.27;;;7.10;98.20;;;;;;4978864;28;20488;-76
2022/11/28 02:41:02;;;;;;;1.60;1.20;;;7.10;98.20;;;;;;4996154;23;20503;-81
2022/11/28 02:43:35;;;;;;;1.60;1.20;;;7.10;98.20;;;;;;4990753;28;21021;-80
2022/11/28 02:46:06;;;;;;;1.63;1.27;;;7.10;98.20;;;;;;4978724;28;20457;-81
2022/11/28 02:48:41;;;;;;;5.30;4.70;;;7.10;98.20;;;;;;5008175;28;20522;-81
2022/11/28 02:51:13;;;;;;;1.60;1.20;;;7.10;98.20;;;;;;4996601;28;20486;-82
2022/11/28 02:53:41;;;;;;;1.60;1.30;;;7.10;98.20;;;;;;4986837;28;20463;-81
2022/11/28 02:56:11;;;;;;;1.60;1.30;;;7.10;98.20;;;;;;4976959;28;20503;-81
2022/11/28 02:58:37;;;;;;;2.23;1.97;;;7.10;98.20;;;;;;4988273;28;20556;-81
2022/11/28 03:01:06;;;;;;;1.60;1.20;;;7.10;98.20;;;;;;4979882;28;20485;-80
2022/11/28 03:04:03;;;;;;;1.70;1.50;;;7.10;98.20;;;;;;4992817;28;20506;-80
2022/11/28 03:06:42;;;;;;;1.60;1.30;;;7.10;98.20;;;;;;4949847;28;20479;-79
2022/11/28 03:09:38;;;;;;;1.70;1.40;;;7.10;98.20;;;;;;5008186;28;20467;-80
2022/11/28 03:12:15;;;;;;;1.70;1.30;;;7.20;98.20;;;;;;4986532;28;21043;-81
2022/11/28 03:14:51;;;;;;;4.13;2.87;;;7.20;98.20;;;;;;4987914;28;20497;-81
2022/11/28 03:17:25;;;;;;;1.60;1.20;;;7.20;98.20;;;;;;4988188;28;20603;-80
2022/11/28 03:20:04;;;;;;;1.60;1.27;;;7.10;98.20;;;;;;5008942;28;20475;-80
2022/11/28 03:22:37;;;;;;;1.60;1.20;;;7.10;98.20;;;;;;4983432;28;20476;-81
2022/11/28 03:25:13;;;;;;;1.60;1.40;;;7.10;98.20;;;;;;4988352;28;20603;-80
2022/11/28 03:27:45;;;;;;;1.60;1.20;;;7.10;98.20;;;;;;4997778;28;21032;-80
2022/11/28 03:30:18;;;;;;;1.70;1.30;;;7.10;98.20;;;;;;5009280;28;20519;-80
2022/11/28 03:32:48;;;;;;;1.60;1.27;;;7.10;98.20;;;;;;5002063;28;21023;-80
2022/11/28 03:35:23;;;;;;;1.60;1.20;;;7.10;98.20;;;;;;5019407;28;20466;-80
2022/11/28 03:37:55;;;;;;;1.70;1.40;;;7.10;98.20;;;;;;4988001;28;20539;-80
2022/11/28 03:40:26;;;;;;;1.60;1.30;;;7.10;98.20;;;;;;4997321;28;20511;-80
2022/11/28 03:42:58;;;;;;;1.60;1.20;;;7.10;98.20;;;;;;4988338;28;21000;-80
2022/11/28 03:45:27;;;;;;;1.60;1.20;;;7.10;98.20;;;;;;4988347;28;20857;-80
2022/11/28 03:47:58;;;;;;;1.73;1.50;;;7.00;98.20;;;;;;4997416;28;20872;-80
2022/11/28 03:50:33;;;;;;;1.60;1.30;;;7.00;98.20;;;;;;5013023;28;20476;-80
2022/11/28 03:53:05;;;;;;;2.33;2.13;;;7.00;98.20;;;;;;4981799;28;20477;-80
2022/11/28 03:55:39;;;;;;;1.70;1.50;;;7.00;98.20;;;;;;4992524;28;20611;-79
2022/11/28 03:58:29;;;;;;;1.63;1.30;;;7.00;98.20;;;;;;5001605;28;20523;-79
2022/11/28 04:01:29;;;;;;;1.70;1.30;;;7.00;98.20;;;;;;5002870;28;21032;-81
2022/11/28 04:04:08;;;;;;;1.60;1.30;;;7.00;98.20;;;;;;4993637;28;20485;-80
2022/11/28 04:06:43;;;;;;;1.60;1.40;;;7.00;98.20;;;;;;4982323;28;20485;-80
2022/11/28 04:09:18;;;;;;;1.70;1.40;;;6.90;98.20;;;;;;4999157;28;20470;-80
2022/11/28 04:11:49;;;;;;;1.60;1.27;;;6.90;98.20;;;;;;4988824;28;20504;-80
2022/11/28 04:14:21;;;;;;;2.87;2.40;;;6.90;98.20;;;;;;4996019;28;20453;-80
2022/11/28 04:16:54;;;;;;;1.60;1.30;;;6.90;98.20;;;;;;4986213;28;20493;-81
2022/11/28 04:19:27;;;;;;;1.63;1.30;;;6.90;98.20;;;;;;4995720;28;20488;-80
2022/11/28 04:22:01;;;;;;;1.60;1.20;;;6.90;98.20;;;;;;4989902;28;20517;-80
2022/11/28 04:24:33;;;;;;;1.70;1.30;;;6.90;98.20;;;;;;4997171;28;20531;-80
2022/11/28 04:27:03;;;;;;;1.70;1.40;;;6.90;98.20;;;;;;4994508;28;20487;-80
2022/11/28 04:29:36;;;;;;;1.60;1.27;;;6.90;98.20;;;;;;5015406;28;20476;-81
2022/11/28 04:32:04;;;;;;;1.60;1.20;;;6.80;98.20;;;;;;4988776;28;20481;-81
2022/11/28 04:34:34;;;;;;;1.70;1.40;;;6.80;98.20;;;;;;4993663;28;20923;-81
2022/11/28 04:37:06;;;;;;;1.60;1.20;;;6.80;98.20;;;;;;4990569;28;20654;-81
2022/11/28 04:39:34;;;;;;;1.60;1.30;;;6.80;98.20;;;;;;4997678;28;20842;-80
2022/11/28 04:42:08;;;;;;;1.60;1.20;;;6.90;98.20;;;;;;4982984;28;20515;-80
2022/11/28 04:44:39;;;;;;;1.70;1.40;;;6.90;98.20;;;;;;4993456;28;20535;-81
2022/11/28 04:47:07;;;;;;;1.67;1.33;;;6.90;98.20;;;;;;4995869;28;20492;-81
2022/11/28 04:49:34;;;;;;;1.90;1.70;;;6.90;98.20;;;;;;5016352;28;20484;-80
2022/11/28 04:52:07;;;;;;;1.70;1.40;;;6.90;98.20;;;;;;4996645;28;20677;-81
2022/11/28 04:54:45;;;;;;;1.60;1.30;;;6.90;98.20;;;;;;4994607;28;20457;-81
2022/11/28 04:57:14;;;;;;;1.60;1.30;;;6.90;98.20;;;;;;4985877;28;20959;-80
2022/11/28 04:59:44;;;;;;;4.33;3.93;;;6.90;98.20;;;;;;4997259;28;20481;-81
2022/11/28 05:02:14;;;;;;;1.70;1.30;;;6.90;98.20;;;;;;4993825;28;20989;-80
2022/11/28 05:04:43;;;;;;;1.60;1.20;;;6.90;98.20;;;;;;4995984;28;20496;-80
2022/11/28 05:07:12;;;;;;;1.60;1.30;;;6.90;98.20;;;;;;4998768;28;20491;-81
2022/11/28 05:09:38;;;;;;;1.60;1.30;;;6.90;98.20;;;;;;5020011;28;20480;-81
2022/11/28 05:12:06;;;;;;;4.50;4.17;;;6.90;98.20;;;;;;4995526;28;20511;-80
2022/11/28 05:14:33;;;;;;;1.60;1.20;;;6.90;98.20;;;;;;4997674;28;20457;-80
2022/11/28 05:16:59;;;;;;;1.60;1.37;;;6.90;98.20;;;;;;4994067;28;20506;-80
2022/11/28 05:19:26;;;;;;;1.70;1.53;;;6.90;98.20;;;;;;5010249;28;20496;-81
2022/11/28 05:21:53;;;;;;;1.60;1.20;;;6.90;98.20;;;;;;4992014;28;20495;-80
2022/11/28 05:24:21;;;;;;;1.60;1.20;;;6.90;98.20;;;;;;5002501;28;21032;-80
2022/11/28 05:26:48;;;;;;;1.60;1.30;;;6.90;98.20;;;;;;4992398;28;20514;-80
2022/11/28 05:29:15;;;;;;;1.60;1.20;;;6.90;98.20;;;;;;5018080;28;20468;-80
2022/11/28 05:31:42;;;;;;;1.60;1.20;;;6.90;98.20;;;;;;4993799;28;20864;-80
2022/11/28 05:34:08;;;;;;;1.63;1.30;;;6.90;98.20;;;;;;4985887;28;20854;-80
2022/11/28 05:36:35;;;;;;;2.37;2.17;;;6.90;98.20;;;;;;4974620;28;20490;-80
2022/11/28 05:39:02;;;;;;;1.63;1.30;;;6.90;98.20;;;;;;4995928;28;21105;-81
2022/11/28 05:41:33;;;;;;;1.60;1.30;;;6.90;98.20;;;;;;4988174;28;20860;-81
2022/11/28 05:44:00;;;;;;;1.60;1.30;;;6.90;98.20;;;;;;4994554;28;20528;-81
2022/11/28 05:46:29;;;;;;;1.70;1.40;;;6.90;98.20;;;;;;4983223;28;20556;-82
2022/11/28 05:48:56;;;;;;;1.70;1.33;;;6.90;98.20;;;;;;4981082;28;20495;-81
2022/11/28 05:51:23;;;;;;;1.60;1.30;;;6.90;98.20;;;;;;4985474;28;20954;-83
2022/11/28 05:53:50;;;;;;;3.73;3.47;;;6.80;98.20;;;;;;4992004;28;20467;-82
2022/11/28 05:56:19;;;;;;;1.63;1.30;;;6.80;98.20;;;;;;4986480;28;20476;-82
2022/11/28 05:58:47;;;;;;;1.60;1.20;;;6.80;98.20;;;;;;4988443;28;20465;-81
2022/11/28 06:01:15;;;;;;;1.90;1.70;;;6.80;98.20;;;;;;4986935;28;20563;-83
2022/11/28 06:03:42;;;;;;;1.60;1.33;;;6.80;98.20;;;;;;4988105;28;20560;-81
2022/11/28 06:06:14;;;;;;;1.60;1.30;;;6.80;98.20;;;;;;4986587;28;20547;-83
2022/11/28 06:08:42;;;;;;;1.60;1.20;;;6.80;98.20;;;;;;5001800;28;20500;-81
2022/11/28 06:11:09;;;;;;;1.60;1.30;;;6.80;98.20;;;;;;4985045;28;20548;-80
2022/11/28 06:13:36;;;;;;;1.70;1.30;;;6.80;98.20;;;;;;4991685;28;20679;-84
2022/11/28 06:16:07;;;;;;;1.67;1.37;;;6.80;98.20;;;;;;4983319;28;20465;-81
2022/11/28 06:18:34;;;;;;;1.60;1.20;;;6.80;98.20;;;;;;4977811;28;20477;-83
2022/11/28 06:21:05;;;;;;;1.67;1.37;;;6.80;98.20;;;;;;4985955;28;20480;-81
2022/11/28 06:23:32;;;;;;;1.60;1.30;;;6.80;98.20;;;;;;5000149;28;20483;-81
2022/11/28 06:26:05;;;;;;;1.70;1.40;;;6.80;98.20;;;;;;4981922;28;20491;-80
2022/11/28 06:28:32;;;;;;;4.13;3.83;;;6.80;98.20;;;;;;4995037;28;20487;-83
2022/11/28 06:30:58;;;;;;;1.70;1.40;;;6.80;98.20;;;;;;4983944;28;20492;-83
2022/11/28 06:33:27;;;;;;;1.60;1.30;;;6.80;98.20;;;;;;4987097;28;20480;-82
2022/11/28 06:35:59;;;;;;;1.67;1.30;;;6.80;98.20;;;;;;4984585;28;20500;-82
2022/11/28 06:38:26;;;;;;;1.67;1.30;;;6.80;98.20;;;;;;4990248;28;20527;-80
2022/11/28 06:40:57;;;;;;;1.60;1.20;;;6.80;98.20;;;;;;4979229;28;20496;-82
2022/11/28 06:43:23;;;;;;;1.60;1.30;;;6.80;98.20;;;;;;4987606;28;20456;-83
2022/11/28 06:45:50;;;;;;;1.70;1.50;;;6.80;98.20;;;;;;4982266;28;20496;-81
2022/11/28 06:48:18;;;;;;;1.60;1.30;;;6.80;98.20;;;;;;5006170;28;20571;-81
2022/11/28 06:50:46;;;;;;;4.43;4.13;;;6.80;98.20;;;;;;4990552;28;21101;-80
2022/11/28 06:53:13;;;;;;;1.60;1.20;;;6.80;98.20;;;;;;4989232;28;20487;-81
2022/11/28 06:55:40;;;;;;;1.60;1.30;;;6.80;98.20;;;;;;4991768;28;20461;-80
2022/11/28 06:58:07;;;;;;;1.63;1.23;;;6.80;98.20;;;;;;4987943;28;20492;-80
2022/11/28 07:00:34;;;;;;;1.70;1.30;;;6.80;98.20;;;;;;4990018;28;20481;-79
2022/11/28 07:03:00;;;;;;;1.90;1.70;;;6.90;98.20;;;;;;4978780;28;20904;-79
2022/11/28 07:05:29;;;;;;;1.60;1.30;;;6.90;98.20;;;;;;4989081;28;20495;-79
2022/11/28 07:07:58;;;;;;;1.63;1.30;;;6.90;98.20;;;;;;4981351;28;20502;-78
2022/11/28 07:10:27;;;;;;;1.70;1.40;;;6.90;98.20;;;;;;4988636;28;20873;-77
2022/11/28 07:12:54;;;;;;;1.60;1.20;;;6.90;98.20;;;;;;4969660;28;20481;-78
2022/11/28 07:15:21;;;;;;;1.60;1.20;;;6.90;98.20;;;;;;4987519;28;20461;-78
2022/11/28 07:17:48;;;;;;;1.60;1.20;;;6.90;98.20;;;;;;4965621;28;20481;-78
2022/11/28 07:20:15;;;;;;;1.70;1.30;;;6.90;98.20;;;;;;4987483;28;20491;-78
2022/11/28 07:22:43;;;;;;;1.60;1.30;;;6.90;98.20;;;;;;4982042;28;20520;-78
2022/11/28 07:25:11;;;;;;;1.60;1.20;;;6.90;98.20;;;;;;4988714;28;20608;-78
2022/11/28 07:27:38;;;;;;;1.60;1.30;;;6.90;98.20;;;;;;4986404;28;20481;-78
2022/11/28 07:30:06;;;;;;;1.70;1.40;;;6.90;98.20;;;;;;4987754;28;20570;-78
2022/11/28 07:32:33;;;;;;;1.70;1.30;;;6.90;98.20;;;;;;4983416;28;21008;-78
2022/11/28 07:35:00;;;;;;;2.80;2.33;;;6.90;98.20;;;;;;4989254;28;20818;-80
2022/11/28 07:37:27;;;;;;;1.60;1.20;;;6.90;98.20;;;;;;4978399;28;20484;-78
2022/11/28 07:39:53;;;;;;;4.43;4.13;;;6.90;98.20;;;;;;4987340;28;20500;-78
2022/11/28 07:42:21;;;;;;;1.93;1.73;;;7.00;98.20;;;;;;4978717;28;20569;-78
2022/11/28 07:44:48;;;;;;;1.60;1.20;;;6.90;98.20;;;;;;4992656;28;20496;-79
2022/11/28 07:47:15;;;;;;;1.60;1.20;;;7.00;98.20;;;;;;4977541;28;20912;-78
2022/11/28 07:49:42;;;;;;;1.60;1.30;;;7.00;98.20;;;;;;4988379;28;20495;-78
2022/11/28 07:52:09;;;;;;;2.43;2.23;;;7.00;98.20;;;;;;4987697;28;20496;-79
2022/11/28 07:54:36;;;;;;;2.33;2.13;;;7.00;98.20;;;;;;4996966;28;20461;-80
2022/11/28 07:57:02;;;;;;;1.60;1.20;;;7.10;98.20;;;;;;4984292;28;20895;-78
2022/11/28 07:59:30;;;;;;;1.60;1.20;;;7.10;98.20;;;;;;4990849;28;20480;-79
2022/11/28 08:01:57;;;;;;;1.60;1.30;;;7.10;98.20;;;;;;4985152;28;20493;-78
2022/11/28 08:04:24;;;;;;;3.30;2.33;;;7.10;98.20;;;;;;4996481;28;20843;-77
2022/11/28 08:06:51;;;;;;;1.60;1.30;;;7.10;98.20;;;;;;4978780;28;20485;-80
2022/11/28 08:09:18;;;;;;;1.60;1.30;;;7.10;98.20;;;;;;4986185;28;20461;-78
2022/11/28 08:11:45;;;;;;;1.60;1.20;;;7.10;98.20;;;;;;4979660;28;20481;-78
2022/11/28 08:14:13;;;;;;;3.23;2.93;;;7.20;98.20;;;;;;4991853;28;20461;-78
2022/11/28 08:16:43;;;;;;;1.60;1.20;;;7.10;98.20;;;;;;4975290;28;20481;-77
2022/11/28 08:19:11;;;;;;;1.60;1.20;;;7.10;98.20;;;;;;4982672;28;20468;-78
2022/11/28 08:21:37;;;;;;;1.60;1.27;;;7.10;98.20;;;;;;4982642;28;20831;-78
2022/11/28 08:24:06;;;;;;;1.60;1.30;;;7.20;98.20;;;;;;4989872;28;20907;-79
2022/11/28 08:26:34;;;;;;;1.60;1.20;;;7.20;98.20;;;;;;4981213;28;20855;-78
2022/11/28 08:29:01;;;;;;;1.60;1.30;;;7.20;98.20;;;;;;4997666;28;20877;-78
2022/11/28 08:31:30;;;;;;;1.60;1.30;;;7.20;98.20;;;;;;4980638;28;20832;-78
2022/11/28 08:34:01;;;;;;;1.60;1.20;;;7.20;98.20;;;;;;4986150;28;20464;-78
2022/11/28 08:36:28;;;;;;;1.60;1.30;;;7.20;98.20;;;;;;4982274;28;20472;-77
2022/11/28 08:38:55;;;;;;;1.60;1.30;;;7.20;98.20;;;;;;4990843;28;20465;-76
2022/11/28 08:41:23;;;;;;;1.70;1.50;;;7.20;98.20;;;;;;4980067;28;20684;-77
2022/11/28 08:43:51;;;;;;;1.60;1.30;;;7.20;98.20;;;;;;4989932;28;20469;-77
2022/11/28 08:46:20;;;;;;;3.60;3.30;;;7.20;98.20;;;;;;4980593;28;20475;-77
2022/11/28 08:48:47;;;;;;;1.67;1.20;;;7.20;98.20;;;;;;4998676;28;20465;-78
2022/11/28 08:51:18;;;;;;;1.70;1.40;;;7.20;98.20;;;;;;4979594;28;20616;-78
2022/11/28 08:53:45;;;;;;;1.60;1.30;;;7.20;98.20;;;;;;4980131;28;20473;-78
2022/11/28 08:56:12;;;;;;;1.60;1.30;;;7.20;98.20;;;;;;4981744;28;20480;-78
2022/11/28 08:58:39;;;;;;;1.60;1.30;;;7.30;98.20;;;;;;4988190;28;20472;-78
2022/11/28 09:01:15;;;;;;;1.60;1.30;;;7.30;98.20;;;;;;4980656;28;20493;-77
2022/11/28 09:03:41;;;;;;;1.60;1.30;;;7.30;98.20;;;;;;4982194;28;20465;-77
2022/11/28 09:06:08;;;;;;;1.63;1.30;;;7.30;98.20;;;;;;4981988;28;20482;-78
2022/11/28 09:08:37;;;;;;;1.60;1.30;;;7.30;98.20;;;;;;4985817;28;20503;-79
2022/11/28 09:11:06;;;;;;;1.70;1.40;;;7.30;98.20;;;;;;4980082;28;20491;-77
2022/11/28 09:13:33;;;;;;;1.60;1.27;;;7.30;98.20;;;;;;4983821;28;20488;-78
2022/11/28 09:16:00;;;;;;;1.60;1.30;;;7.30;98.20;;;;;;4979699;28;20472;-77
2022/11/28 09:18:27;;;;;;;1.63;1.30;;;7.30;98.20;;;;;;4986141;28;20473;-76
2022/11/28 09:20:57;;;;;;;1.63;1.30;;;7.30;98.20;;;;;;4979543;28;20978;-77
2022/11/28 09:23:24;;;;;;;1.60;1.20;;;7.40;98.20;;;;;;4979682;28;20460;-77
2022/11/28 09:25:52;;;;;;;1.60;1.23;;;7.40;98.20;;;;;;4981765;28;20484;-79
2022/11/28 09:28:19;;;;;;;1.60;1.20;;;7.30;98.20;;;;;;5001969;28;20466;-80
2022/11/28 09:30:46;;;;;;;1.63;1.30;;;7.40;98.20;;;;;;4990753;28;20491;-78
2022/11/28 09:33:13;;;;;;;1.60;1.30;;;7.40;98.20;;;;;;4981780;28;20561;-83
2022/11/28 09:35:40;;;;;;;2.03;1.83;;;7.40;98.20;;;;;;4991576;28;20461;-78
2022/11/28 09:38:07;;;;;;;2.87;2.67;;;7.40;98.20;;;;;;4980769;28;20491;-78
2022/11/28 09:40:37;;;;;;;1.60;1.20;;;7.40;98.20;;;;;;4990028;28;20495;-78
2022/11/28 09:43:14;;;;;;;1.60;1.20;;;7.40;98.20;;;;;;4983762;28;20480;-79
2022/11/28 09:45:41;;;;;;;1.60;1.30;;;7.50;98.20;;;;;;4991455;28;20977;-78
2022/11/28 09:48:20;;;;;;;1.60;1.20;;;7.50;98.20;;;;;;4988234;28;20515;-78
2022/11/28 09:50:49;;;;;;;1.70;1.50;;;7.50;98.20;;;;;;4985001;28;20484;-78
2022/11/28 09:53:22;;;;;;;1.60;1.10;;;7.60;98.20;;;;;;4991368;28;20469;-78
2022/11/28 09:55:52;;;;;;;2.00;1.80;;;7.60;98.20;;;;;;4980062;28;21006;-78
2022/11/28 09:58:27;;;;;;;1.80;1.60;;;7.60;98.20;;;;;;4998896;28;20483;-79
2022/11/28 10:01:03;;;;;;;1.70;1.40;;;7.60;98.20;;;;;;4979203;28;20702;-79
2022/11/28 10:03:39;;;;;;;1.60;1.20;;;7.60;98.20;;;;;;4990227;28;20504;-78
2022/11/28 10:06:15;;;;;;;4.80;3.57;;;7.60;98.20;;;;;;4977621;28;20814;-79
2022/11/28 10:09:08;;;;;;;1.60;1.20;;;7.60;98.20;;;;;;4981983;28;20579;-81
2022/11/28 10:11:49;;;;;;;3.00;2.80;;;7.60;98.20;;;;;;4979290;28;20510;-78
2022/11/28 10:14:46;;;;;;;1.60;1.20;;;7.60;98.20;;;;;;4987064;28;20461;-78
2022/11/28 10:17:24;;;;;;;9.53;2.30;;;7.60;98.20;;;;;;4966688;28;20482;-79
2022/11/28 10:19:56;;;;;;;1.60;1.20;;;7.60;98.20;;;;;;4987430;28;20492;-79
2022/11/28 10:22:32;;;;;;;1.90;1.70;;;7.70;98.20;;;;;;4966671;28;20998;-79
2022/11/28 10:25:04;;;;;;;1.60;1.20;;;7.70;98.20;;;;;;4984739;28;20551;-79
2022/11/28 10:27:35;;;;;;;1.60;1.20;;;7.70;98.20;;;;;;4970117;28;20589;-79
2022/11/28 10:30:05;;;;;;;1.60;1.20;;;7.70;98.20;;;;;;4986795;28;20526;-79
2022/11/28 10:32:37;;;;;;;1.60;1.20;;;7.70;98.20;;;;;;4969617;28;20512;-79
2022/11/28 10:35:11;;;;;;;1.60;1.23;;;7.70;98.20;;;;;;4985969;28;20913;-78
2022/11/28 10:37:39;;;;;;;1.60;1.20;;;7.70;98.20;;;;;;4969259;28;20478;-78
2022/11/28 10:40:16;;;;;;;1.60;1.20;;;7.60;98.20;;;;;;4987846;28;20640;-79
2022/11/28 10:42:50;;;;;;;1.60;1.20;;;7.70;98.20;;;;;;4973112;28;20507;-79
2022/11/28 10:45:25;;;;;;;1.63;1.40;;;7.70;98.20;;;;;;4989854;28;20867;-82
2022/11/28 10:48:05;;;;;;;1.60;1.20;;;7.60;98.20;;;;;;4965274;28;20520;-81
2022/11/28 10:50:39;;;;;;;1.60;1.10;;;7.60;98.20;;;;;;4988847;28;20642;-81
2022/11/28 10:53:16;;;;;;;1.60;1.20;;;7.70;98.20;;;;;;4963390;28;20480;-81
2022/11/28 10:55:53;;;;;;;1.67;1.30;;;7.70;98.20;;;;;;4988980;28;20479;-81
2022/11/28 10:58:23;;;;;;;1.60;1.20;;;7.70;98.20;;;;;;4974667;28;20504;-81
2022/11/28 11:00:59;;;;;;;1.60;1.20;;;7.70;98.20;;;;;;4978847;28;20588;-81
2022/11/28 11:03:31;;;;;;;1.60;1.20;;;7.70;98.20;;;;;;4998097;28;20792;-80
2022/11/28 11:05:57;;;;;;;1.60;1.20;;;7.70;98.20;;;;;;4978947;28;20517;-81
2022/11/28 11:08:27;;;;;;;2.03;1.83;;;7.80;98.20;;;;;;4977660;28;20473;-80
2022/11/28 11:11:01;;;;;;;1.60;1.20;;;7.80;98.20;;;;;;4979853;28;20952;-80
2022/11/28 11:13:31;;;;;;;1.60;1.23;;;7.80;98.20;;;;;;4990829;28;20651;-80
2022/11/28 11:16:00;;;;;;;1.60;1.20;;;7.90;98.20;;;;;;4978155;28;20960;-81
2022/11/28 11:18:31;;;;;;;1.60;1.30;;;7.90;98.20;;;;;;4979551;28;20735;-81
2022/11/28 11:21:09;;;;;;;1.60;1.20;;;7.90;98.20;;;;;;4978906;28;20675;-81
2022/11/28 11:23:36;;;;;;;1.60;1.20;;;7.90;98.20;;;;;;4974556;28;20465;-82
2022/11/28 11:26:25;;;;;;;1.60;1.20;;;7.90;98.20;;;;;;4977700;28;20484;-83
2022/11/28 11:28:54;;;;;;;1.60;1.30;;;7.90;98.20;;;;;;4982655;28;20461;-79
2022/11/28 11:31:24;;;;;;;1.60;1.20;;;7.90;98.20;;;;;;4974046;28;20477;-81
2022/11/28 11:34:01;;;;;;;1.63;1.27;;;7.90;98.20;;;;;;4975716;28;20886;-79
2022/11/28 11:36:30;;;;;;;1.60;1.20;;;8.00;98.20;;;;;;4976041;28;20481;-79
2022/11/28 11:39:19;;;;;;;1.60;1.20;;;8.00;98.20;;;;;;4977526;28;20480;-78
2022/11/28 11:42:23;;;;;;;1.67;1.30;;;8.00;98.20;;;;;;4974746;28;20469;-78
2022/11/28 11:45:17;;;;;;;1.60;1.20;;;7.90;98.20;;;;;;4988400;28;20597;-77
2022/11/28 11:51:01;;;;;;;1.60;1.20;;;7.90;98.20;;;;;;4946859;28;20482;-79
2022/11/28 11:56:52;;;;;;;1.70;1.30;;;7.90;98.20;;;;;;4974299;28;20482;-79
2022/11/28 11:59:24;;;;;;;1.70;1.20;;;7.90;98.20;;;;;;4986635;28;20538;-79
2022/11/28 12:02:18;;;;;;;1.60;1.20;;;7.90;98.20;;;;;;4985015;28;20581;-79
2022/11/28 12:05:17;;;;;;;3.97;3.67;;;7.90;98.20;;;;;;4990164;28;20471;-79
2022/11/28 12:07:55;;;;;;;1.60;1.10;;;7.90;98.20;;;;;;4972262;28;20478;-79
2022/11/28 12:10:28;;;;;;;1.60;1.20;;;7.90;98.20;;;;;;4987260;28;20499;-80
2022/11/28 12:12:58;;;;;;;1.60;1.20;;;7.90;98.20;;;;;;4971339;28;20495;-80
2022/11/28 12:15:37;;;;;;;1.60;1.40;;;7.90;98.20;;;;;;4988670;28;20464;-79
2022/11/28 12:18:18;;;;;;;1.60;1.13;;;7.90;98.20;;;;;;4962727;28;20558;-80
2022/11/28 12:21:05;;;;;;;1.60;1.30;;;7.90;98.20;;;;;;4988288;28;20493;-79
2022/11/28 12:30:25;;;;;;;1.60;1.20;;;7.90;98.20;;;;;;4915154;29;20472;-80
2022/11/28 12:33:12;;;;;;;1.60;1.23;;;7.90;98.20;;;;;;4894780;29;20503;-80
2022/11/28 12:35:41;;;;;;;1.60;1.23;;;7.90;98.20;;;;;;4984559;28;20492;-80
2022/11/28 12:38:26;;;;;;;1.60;1.20;;;7.90;98.20;;;;;;4978769;28;20565;-81
2022/11/28 12:41:43;;;;;;;1.60;1.20;;;7.90;98.20;;;;;;4982097;28;20487;-81
2022/11/28 12:44:30;;;;;;;1.67;1.30;;;7.90;98.20;;;;;;4963193;28;20473;-81
2022/11/28 12:47:09;;;;;;;1.60;1.20;;;7.90;98.20;;;;;;4978436;28;20485;-81
2022/11/28 12:49:59;;;;;;;1.60;1.30;;;7.90;98.20;;;;;;4989421;28;20583;-81
2022/11/28 12:52:39;;;;;;;1.60;1.20;;;8.00;98.20;;;;;;4986231;28;20573;-81
2022/11/28 12:55:47;;;;;;;1.60;1.20;;;8.00;98.20;;;;;;4992429;28;20469;-80
2022/11/28 12:58:35;;;;;;;1.60;1.30;;;8.00;98.20;;;;;;4982916;28;20949;-80
2022/11/28 13:01:18;;;;;;;1.60;1.20;;;8.00;98.20;;;;;;4983095;28;20501;-81
2022/11/28 13:04:06;;;;;;;1.70;1.53;;;8.00;98.20;;;;;;4986879;28;20575;-79
2022/11/28 13:06:42;;;;;;;1.60;1.20;;;8.00;98.20;;;;;;4979338;28;20493;-81
2022/11/28 13:09:32;;;;;;;2.03;1.83;;;8.00;98.20;;;;;;4982151;28;21020;-80
2022/11/28 13:12:17;;;;;;;1.60;1.13;;;8.00;98.20;;;;;;4978912;28;20936;-80
2022/11/28 13:14:52;;;;;;;1.60;1.20;;;8.00;98.20;;;;;;4992073;28;20465;-80
2022/11/28 13:17:39;;;;;;;1.60;1.17;;;8.00;98.20;;;;;;4972357;28;20477;-80
2022/11/28 13:20:18;;;;;;;1.60;1.20;;;8.00;98.20;;;;;;4991252;28;20505;-80
2022/11/28 13:22:59;;;;;;;1.60;1.20;;;8.00;98.20;;;;;;4971726;28;20487;-80
2022/11/28 13:25:32;;;;;;;1.60;1.20;;;8.00;98.20;;;;;;4988200;28;20520;-80
2022/11/28 13:28:07;;;;;;;1.60;1.20;;;8.00;98.20;;;;;;4974760;28;20484;-80
2022/11/28 13:30:46;;;;;;;1.60;1.20;;;8.00;98.20;;;;;;4991303;28;20498;-79
2022/11/28 13:33:43;;;;;;;1.60;1.20;;;8.10;98.20;;;;;;4976233;28;20480;-79
2022/11/28 13:36:19;;;;;;;1.60;1.20;;;8.10;98.20;;;;;;4976151;28;20564;-79
2022/11/28 13:38:54;;;;;;;1.60;1.30;;;8.10;98.20;;;;;;4987139;28;20464;-79